Time;durP1;ratioP1;P1;durP2;ratioP2;P2;SDS_P1;SDS_P2;PMS_P1;PMS_P2;Temp;Humidity;BMP_temperature;BMP_pressure;BME280_temperature;BME280_humidity;BME280_pressure;Samples;Min_cycle;Max_cycle;Signal;HPM_P1;HPM_P2
2022/01/24 00:01:54;;;;;;;4.28;2.25;;;;;;;4.58;80.68;101728.16;5032339;28;20095;-73
2022/01/24 00:04:22;;;;;;;4.32;2.38;;;;;;;4.60;80.79;101736.94;5032079;28;20045;-74
2022/01/24 00:06:50;;;;;;;6.18;2.78;;;;;;;4.61;80.67;101728.28;5035478;28;20116;-74
2022/01/24 00:09:18;;;;;;;3.75;1.40;;;;;;;4.55;80.85;101736.72;5051881;28;20381;-73
2022/01/24 00:11:59;;;;;;;3.40;1.38;;;;;;;4.50;80.72;101732.94;5040596;28;20563;-74
2022/01/24 00:17:18;;;;;;;3.45;1.10;;;;;;;4.24;80.64;101733.19;5042966;28;20080;-74
2022/01/24 00:28:01;;;;;;;2.17;1.10;;;;;;;4.16;81.23;101726.63;5026576;28;20052;-74
2022/01/24 00:30:29;;;;;;;2.55;1.50;;;;;;;4.20;81.70;101733.84;5037030;28;20042;-74
2022/01/24 00:32:57;;;;;;;3.00;1.30;;;;;;;4.27;81.49;101735.97;5041559;28;20068;-74
2022/01/24 00:35:25;;;;;;;2.28;1.42;;;;;;;4.39;81.82;101744.53;5048121;28;20148;-74
2022/01/24 00:37:53;;;;;;;2.40;1.40;;;;;;;4.45;81.62;101751.81;5039367;28;20040;-74
2022/01/24 00:40:20;;;;;;;4.03;2.67;;;;;;;4.49;81.97;101759.91;5034542;28;20047;-74
2022/01/24 00:42:54;;;;;;;2.78;2.03;;;;;;;4.56;81.83;101764.66;5038152;28;20037;-73
2022/01/24 00:45:32;;;;;;;6.30;3.63;;;;;;;4.60;82.07;101765.72;5030158;28;20052;-74
2022/01/24 00:48:24;;;;;;;10.32;6.90;;;;;;;4.60;81.75;101777.06;5048569;28;20141;-73
2022/01/24 00:53:51;;;;;;;7.63;6.30;;;;;;;4.48;82.06;101786.84;5035127;28;20512;-74
2022/01/24 00:56:18;;;;;;;3.38;1.80;;;;;;;4.47;82.09;101782.44;5030299;28;20082;-73
2022/01/24 00:58:46;;;;;;;4.22;3.00;;;;;;;4.51;82.39;101786.13;5034597;28;20123;-72
2022/01/24 01:01:16;;;;;;;10.48;6.32;;;;;;;4.53;82.15;101785.38;5014229;28;20041;-74
2022/01/24 01:03:44;;;;;;;8.70;5.47;;;;;;;4.50;82.33;101785.22;5034467;28;20093;-74
2022/01/24 01:06:13;;;;;;;10.82;7.43;;;;;;;4.51;82.38;101775.66;5042838;28;20041;-73
2022/01/24 01:19:44;;;;;;;1.75;0.82;;;;;;;4.23;82.30;101739.25;5065078;28;20048;-73
2022/01/24 01:22:11;;;;;;;2.47;0.93;;;;;;;4.21;81.91;101746.97;5060453;28;20070;-72
2022/01/24 01:24:44;;;;;;;13.15;7.15;;;;;;;4.19;82.09;101737.28;5054164;28;20113;-73
2022/01/24 01:27:16;;;;;;;12.27;5.77;;;;;;;4.14;82.06;101736.09;5063095;28;20137;-73
2022/01/24 01:29:53;;;;;;;15.27;7.47;;;;;;;4.05;82.10;101731.25;5052864;28;20053;-74
2022/01/24 01:32:39;;;;;;;13.73;6.15;;;;;;;4.09;81.93;101733.22;5055826;28;20052;-73
2022/01/24 01:35:24;;;;;;;12.05;5.97;;;;;;;4.03;81.64;101726.75;5050433;28;20400;-73
2022/01/24 01:38:21;;;;;;;5.63;2.95;;;;;;;3.98;81.70;101723.88;5017403;28;20065;-73
2022/01/24 01:54:53;;;;;;;5.13;2.53;;;;;;;3.72;81.58;101691.06;5031492;28;20405;-74
2022/01/24 01:57:22;;;;;;;4.43;1.92;;;;;;;3.64;81.65;101689.69;5032331;28;20076;-73
2022/01/24 01:59:50;;;;;;;2.83;1.60;;;;;;;3.52;82.26;101686.38;5031707;28;20131;-74
2022/01/24 02:02:18;;;;;;;2.47;1.20;;;;;;;3.48;82.17;101682.69;5032393;28;20036;-74
2022/01/24 02:04:47;;;;;;;4.60;2.00;;;;;;;3.45;82.65;101671.19;5050549;28;20557;-74
2022/01/24 02:07:16;;;;;;;2.88;1.80;;;;;;;3.35;82.45;101666.25;5028840;28;20114;-74
2022/01/24 02:09:45;;;;;;;2.25;1.40;;;;;;;3.34;82.44;101657.50;5050871;28;20045;-74
2022/01/24 02:12:18;;;;;;;1.75;1.23;;;;;;;3.34;82.25;101652.28;5055415;28;20048;-74
2022/01/24 02:14:51;;;;;;;3.42;1.70;;;;;;;3.38;82.69;101655.97;5044685;28;20033;-75
2022/01/24 02:17:27;;;;;;;4.38;1.65;;;;;;;3.42;82.26;101657.94;5035611;28;20042;-73
2022/01/24 02:20:11;;;;;;;9.52;4.68;;;;;;;3.49;82.32;101647.03;5024728;28;20041;-74
2022/01/24 02:22:48;;;;;;;3.85;1.50;;;;;;;3.45;81.99;101645.06;5018776;28;20037;-74
2022/01/24 02:25:28;;;;;;;1.92;1.30;;;;;;;3.41;82.27;101643.13;5042384;28;20037;-72
2022/01/24 02:27:59;;;;;;;2.75;1.23;;;;;;;3.29;82.25;101637.16;5030574;28;20382;-74
2022/01/24 02:30:55;;;;;;;3.75;1.80;;;;;;;3.31;82.65;101638.16;5035294;28;20604;-74
2022/01/24 02:33:22;;;;;;;4.03;1.75;;;;;;;3.38;82.91;101643.81;5036850;28;20520;-75
2022/01/24 02:36:30;;;;;;;7.72;5.78;;;;;;;3.56;82.99;101644.88;5035056;28;20223;-74
2022/01/24 02:39:09;;;;;;;8.88;7.13;;;;;;;3.67;82.69;101645.50;5033855;28;20083;-74
2022/01/24 02:49:52;;;;;;;38.47;30.38;;;;;;;3.86;82.63;101664.03;5028393;28;20037;-74
2022/01/24 02:52:23;;;;;;;20.77;13.00;;;;;;;3.85;82.44;101659.59;5030621;28;20124;-74
2022/01/24 02:54:52;;;;;;;19.08;10.55;;;;;;;3.89;82.45;101666.78;5031847;28;20076;-73
2022/01/24 02:57:21;;;;;;;29.25;17.08;;;;;;;3.93;82.06;101673.09;5035948;28;20114;-74
2022/01/24 02:59:49;;;;;;;40.60;29.35;;;;;;;3.90;82.45;101679.03;5037383;28;20052;-74
2022/01/24 03:02:17;;;;;;;21.08;11.20;;;;;;;3.87;81.97;101699.75;5045484;28;20045;-74
2022/01/24 03:04:44;;;;;;;12.70;7.20;;;;;;;3.87;81.99;101691.03;5047526;28;20052;-75
2022/01/24 03:07:12;;;;;;;18.50;11.52;;;;;;;3.86;82.55;101697.06;5029406;28;20054;-75
2022/01/24 03:09:41;;;;;;;11.52;6.68;;;;;;;3.89;82.44;101699.84;5036434;28;20445;-75
2022/01/24 03:12:14;;;;;;;10.35;5.38;;;;;;;3.91;82.53;101701.75;5028972;28;20052;-74
2022/01/24 03:14:41;;;;;;;9.93;5.25;;;;;;;3.87;82.05;101696.25;5040712;28;20041;-75
2022/01/24 03:17:09;;;;;;;9.13;4.72;;;;;;;3.87;82.06;101694.53;5038833;28;20489;-74
2022/01/24 03:19:37;;;;;;;5.68;3.15;;;;;;;3.87;82.05;101699.75;5024022;28;20037;-74
2022/01/24 03:22:08;;;;;;;7.20;4.00;;;;;;;3.84;82.31;101704.81;5014230;28;20061;-74
2022/01/24 03:24:36;;;;;;;11.02;7.53;;;;;;;3.81;82.20;101703.72;5029374;28;20493;-74
2022/01/24 03:27:04;;;;;;;9.45;4.57;;;;;;;3.78;82.29;101704.47;5044388;28;20033;-74
2022/01/24 03:29:33;;;;;;;7.45;4.15;;;;;;;3.79;82.08;101701.03;5011280;28;20037;-74
2022/01/24 03:32:00;;;;;;;8.02;4.22;;;;;;;3.78;82.31;101701.84;5037465;28;20065;-75
2022/01/24 03:34:28;;;;;;;6.95;3.90;;;;;;;3.78;82.40;101704.47;5035067;28;20037;-75
2022/01/24 03:36:55;;;;;;;10.00;5.05;;;;;;;3.76;82.52;101706.06;5037199;28;20065;-75
2022/01/24 03:39:23;;;;;;;4.65;2.53;;;;;;;3.78;82.70;101703.56;5018693;28;20045;-74
2022/01/24 03:41:50;;;;;;;3.42;2.17;;;;;;;3.77;82.45;101691.31;5036516;28;20041;-75
2022/01/24 03:44:19;;;;;;;3.95;2.40;;;;;;;3.76;82.34;101684.28;5014982;28;20037;-75
2022/01/24 03:46:59;;;;;;;6.53;3.78;;;;;;;3.75;82.32;101680.78;5014675;28;20486;-73
2022/01/24 03:49:48;;;;;;;4.50;2.78;;;;;;;3.67;82.38;101682.06;5031596;28;20041;-75
2022/01/24 03:52:17;;;;;;;4.53;2.40;;;;;;;3.64;82.20;101684.47;5062417;28;20043;-75
2022/01/24 03:54:45;;;;;;;5.40;3.00;;;;;;;3.57;82.15;101685.84;5060245;28;20041;-75
2022/01/24 03:57:14;;;;;;;12.32;7.78;;;;;;;3.54;81.86;101680.41;5039330;28;20045;-75
2022/01/24 03:59:42;;;;;;;12.05;8.52;;;;;;;3.51;81.79;101680.25;5047284;28;20132;-75
2022/01/24 04:02:15;;;;;;;15.80;11.93;;;;;;;3.51;82.18;101664.59;5051522;28;20051;-75
2022/01/24 04:04:43;;;;;;;27.25;18.60;;;;;;;3.47;81.86;101659.13;5013252;28;20049;-75
2022/01/24 04:07:10;;;;;;;12.82;7.93;;;;;;;3.43;81.80;101680.63;5035305;28;20121;-75
2022/01/24 04:09:39;;;;;;;17.83;14.13;;;;;;;3.39;82.00;101689.97;5014153;28;20057;-75
2022/01/24 04:12:08;;;;;;;15.00;9.85;;;;;;;3.36;81.60;101688.88;5035588;28;20136;-75
2022/01/24 04:14:40;;;;;;;10.95;6.75;;;;;;;3.31;81.60;101678.19;5050216;28;20049;-75
2022/01/24 04:17:24;;;;;;;11.07;8.60;;;;;;;3.26;81.75;101679.63;5035720;28;20041;-76
2022/01/24 04:22:48;;;;;;;4.47;1.85;;;;;;;3.13;81.69;101667.56;5045528;28;20053;-74
2022/01/24 04:25:22;;;;;;;3.00;1.67;;;;;;;3.12;81.75;101663.16;5049598;28;20048;-74
2022/01/24 04:27:50;;;;;;;5.22;2.53;;;;;;;3.17;81.69;101661.72;5048993;28;20055;-74
2022/01/24 04:30:18;;;;;;;5.40;2.20;;;;;;;3.19;81.59;101665.31;5037443;28;20050;-75
2022/01/24 04:32:46;;;;;;;5.95;3.10;;;;;;;3.17;81.18;101658.19;5047484;28;20128;-75
2022/01/24 04:35:15;;;;;;;5.25;3.45;;;;;;;3.17;81.66;101656.50;5056964;28;20045;-75
2022/01/24 04:37:43;;;;;;;13.00;7.07;;;;;;;3.16;81.50;101652.09;5039351;28;20401;-75
2022/01/24 04:40:12;;;;;;;12.77;9.30;;;;;;;3.12;81.46;101652.72;5040204;28;20072;-75
2022/01/24 04:42:47;;;;;;;17.88;12.60;;;;;;;3.11;81.11;101647.41;5035771;28;20055;-75
2022/01/24 04:51:12;;;;;;;3.42;2.28;;;;;;;3.00;81.51;101651.09;5037186;28;20292;-75
2022/01/24 04:56:27;;;;;;;4.13;2.22;;;;;;;3.01;81.51;101647.69;5002938;28;20038;-75
2022/01/24 04:58:55;;;;;;;4.07;1.90;;;;;;;3.00;81.88;101652.00;5042543;28;20063;-74
2022/01/24 05:01:23;;;;;;;4.78;2.15;;;;;;;3.03;81.77;101646.94;5032405;28;20116;-75
2022/01/24 05:03:51;;;;;;;3.65;1.77;;;;;;;3.02;82.24;101652.97;5049395;28;20049;-75
2022/01/24 05:06:20;;;;;;;2.60;1.80;;;;;;;3.05;82.05;101641.84;5038767;28;20037;-75
2022/01/24 05:08:48;;;;;;;4.35;2.60;;;;;;;3.06;82.62;101641.03;5050576;28;20125;-75
2022/01/24 05:11:20;;;;;;;6.25;4.00;;;;;;;3.09;82.43;101644.69;5040296;28;20095;-75
2022/01/24 05:24:48;;;;;;;46.55;25.90;;;;;;;3.25;83.31;101646.53;5032984;28;20404;-75
2022/01/24 05:27:16;;;;;;;33.22;19.85;;;;;;;3.31;83.15;101643.38;5049965;28;20037;-75
2022/01/24 05:29:45;;;;;;;31.38;23.27;;;;;;;3.43;83.23;101641.47;5035851;28;20404;-75
2022/01/24 05:32:12;;;;;;;38.25;26.35;;;;;;;3.49;83.23;101649.66;5024277;28;20040;-75
2022/01/24 05:34:40;;;;;;;49.00;30.17;;;;;;;3.51;82.66;101640.22;5013611;28;20041;-76
2022/01/24 05:37:09;;;;;;;62.88;43.42;;;;;;;3.44;83.07;101640.66;5023245;28;20056;-75
2022/01/24 05:39:37;;;;;;;83.82;56.25;;;;;;;3.41;83.31;101648.34;5049838;28;20068;-76
2022/01/24 05:42:05;;;;;;;95.80;66.72;;;;;;;3.41;83.40;101648.34;5039044;28;20061;-76
2022/01/24 05:44:33;;;;;;;91.18;65.82;;;;;;;3.41;83.10;101646.63;5031910;28;20049;-75
2022/01/24 05:47:00;;;;;;;78.85;57.53;;;;;;;3.51;83.23;101646.34;5028299;28;20034;-76
2022/01/24 05:49:28;;;;;;;55.10;39.53;;;;;;;3.54;83.03;101640.41;5042186;28;20043;-75
2022/01/24 05:51:55;;;;;;;39.58;28.27;;;;;;;3.53;82.89;101643.81;5038631;28;20106;-75
2022/01/24 05:54:24;;;;;;;38.05;28.00;;;;;;;3.51;82.40;101641.13;5041488;28;20036;-76
2022/01/24 05:56:52;;;;;;;50.85;33.45;;;;;;;3.49;82.33;101640.13;5032830;28;20508;-75
2022/01/24 05:59:20;;;;;;;97.05;58.67;;;;;;;3.44;82.42;101638.97;5032100;28;20044;-76
2022/01/24 06:01:48;;;;;;;144.32;100.03;;;;;;;3.41;82.26;101646.63;5024936;28;20041;-75
2022/01/24 06:04:17;;;;;;;137.65;102.18;;;;;;;3.40;82.45;101636.09;5028500;28;20045;-75
2022/01/24 06:06:45;;;;;;;165.52;125.18;;;;;;;3.40;82.86;101636.09;5041597;28;20056;-75
2022/01/24 06:09:13;;;;;;;198.68;159.27;;;;;;;3.40;82.92;101637.00;5049472;28;20071;-75
2022/01/24 06:11:43;;;;;;;206.98;158.23;;;;;;;3.45;82.84;101642.47;5048153;28;20073;-75
2022/01/24 06:14:10;;;;;;;167.35;133.43;;;;;;;3.58;83.62;101642.38;5037608;28;20069;-75
2022/01/24 06:16:38;;;;;;;148.07;126.75;;;;;;;3.94;84.73;101646.16;5035906;28;20103;-75
2022/01/24 06:19:06;;;;;;;108.50;90.55;;;;;;;4.28;85.07;101652.44;5031570;28;20045;-76
2022/01/24 06:21:33;;;;;;;223.40;184.60;;;;;;;4.65;85.63;101651.84;5029576;28;20120;-75
2022/01/24 06:24:01;;;;;;;307.02;258.33;;;;;;;4.93;85.93;101651.56;5035401;28;20404;-75
2022/01/24 06:26:29;;;;;;;311.13;268.08;;;;;;;5.03;86.39;101656.47;5030115;28;20045;-75
2022/01/24 06:28:59;;;;;;;289.13;247.90;;;;;;;5.12;86.85;101657.81;5043114;28;20123;-76
2022/01/24 06:31:27;;;;;;;239.63;199.25;;;;;;;5.19;86.87;101653.81;5035490;28;20136;-76
2022/01/24 06:33:54;;;;;;;171.63;147.38;;;;;;;5.22;87.13;101646.13;5038737;28;20037;-76
2022/01/24 06:36:22;;;;;;;128.00;112.05;;;;;;;5.18;87.19;101641.56;5041260;28;20045;-76
2022/01/24 06:38:50;;;;;;;90.13;77.43;;;;;;;5.07;86.93;101634.84;5019685;28;20034;-76
2022/01/24 06:41:24;;;;;;;85.93;74.47;;;;;;;4.98;87.00;101637.03;5027503;28;20516;-74
2022/01/24 06:43:52;;;;;;;84.95;67.82;;;;;;;4.97;86.59;101627.38;5028741;28;20048;-76
2022/01/24 06:46:21;;;;;;;59.92;50.22;;;;;;;5.16;86.67;101623.16;5028821;28;20135;-76
2022/01/24 06:48:49;;;;;;;60.13;50.22;;;;;;;5.45;86.73;101616.75;5029881;28;20042;-76
2022/01/24 06:51:18;;;;;;;68.68;59.65;;;;;;;5.80;86.99;101628.97;5039692;28;20125;-73
2022/01/24 06:53:46;;;;;;;29.52;23.58;;;;;;;6.14;87.07;101620.13;5051215;28;20516;-75
2022/01/24 06:56:14;;;;;;;26.83;21.80;;;;;;;6.38;87.13;101614.31;5022838;28;20045;-76
2022/01/24 06:58:42;;;;;;;50.47;43.25;;;;;;;6.55;87.11;101608.94;5037268;28;20049;-75
2022/01/24 07:01:09;;;;;;;57.63;50.13;;;;;;;6.68;86.88;101609.56;5032711;28;20075;-75
2022/01/24 07:03:39;;;;;;;66.68;55.13;;;;;;;6.62;87.10;101601.44;5023621;28;20076;-75
2022/01/24 07:06:06;;;;;;;42.22;37.50;;;;;;;6.68;86.85;101599.06;5035103;28;20048;-75
2022/01/24 07:08:34;;;;;;;58.20;51.80;;;;;;;7.05;86.47;101593.69;5025220;28;20046;-75
2022/01/24 07:11:02;;;;;;;39.88;33.38;;;;;;;7.33;85.99;101598.38;5019470;28;20132;-76
2022/01/24 07:13:29;;;;;;;30.30;22.95;;;;;;;7.36;85.66;101587.09;5027937;28;20041;-75
2022/01/24 07:16:01;;;;;;;76.82;66.00;;;;;;;7.58;85.27;101577.56;5030001;28;20638;-76
2022/01/24 07:21:14;;;;;;;56.40;47.88;;;;;;;8.10;84.37;101583.97;5024554;28;20045;-78
2022/01/24 07:23:42;;;;;;;62.50;54.90;;;;;;;8.40;83.93;101578.16;5038939;28;20072;-76
2022/01/24 07:26:09;;;;;;;65.13;57.67;;;;;;;8.75;83.31;101581.19;5029641;28;20045;-75
2022/01/24 07:28:37;;;;;;;22.00;17.98;;;;;;;8.71;82.52;101581.94;5014007;28;20053;-76
2022/01/24 07:31:05;;;;;;;24.15;20.88;;;;;;;8.37;82.14;101592.94;5012557;28;20445;-75
2022/01/24 07:33:33;;;;;;;16.65;12.60;;;;;;;8.09;81.89;101587.44;5014084;28;20504;-74
2022/01/24 07:36:01;;;;;;;11.48;9.30;;;;;;;7.86;81.52;101584.81;5024200;28;20042;-75
2022/01/24 07:38:30;;;;;;;14.50;10.13;;;;;;;7.75;80.95;101593.09;5049650;28;20062;-75
2022/01/24 07:41:00;;;;;;;21.35;17.13;;;;;;;7.84;80.59;101585.56;5008552;28;20057;-75
2022/01/24 07:43:27;;;;;;;44.95;35.22;;;;;;;8.00;79.84;101582.72;5027089;28;20049;-75
2022/01/24 07:45:55;;;;;;;8.93;6.97;;;;;;;8.29;79.31;101578.56;5024140;28;20464;-74
2022/01/24 07:48:22;;;;;;;9.88;7.43;;;;;;;8.55;77.91;101572.56;5018833;28;20132;-74
2022/01/24 07:50:52;;;;;;;5.00;2.28;;;;;;;8.60;77.62;101573.63;5025379;28;20037;-75
2022/01/24 07:53:22;;;;;;;2.60;1.83;;;;;;;8.63;77.39;101562.34;5024305;28;20041;-74
2022/01/24 07:55:52;;;;;;;6.45;1.75;;;;;;;8.86;76.94;101568.44;5008397;28;20121;-74
2022/01/24 07:58:20;;;;;;;2.58;0.95;;;;;;;8.91;76.00;101573.03;5051733;28;20460;-75
2022/01/24 08:00:48;;;;;;;3.05;1.48;;;;;;;9.08;74.11;101571.84;5022816;28;20047;-74
2022/01/24 08:03:16;;;;;;;2.33;1.20;;;;;;;9.23;73.85;101571.50;5052950;28;20037;-76
2022/01/24 08:05:44;;;;;;;2.33;1.10;;;;;;;9.67;73.68;101570.31;5019817;28;20069;-75
2022/01/24 08:08:11;;;;;;;2.53;1.90;;;;;;;9.96;73.99;101572.13;5022744;28;20046;-76
2022/01/24 08:10:39;;;;;;;2.70;1.80;;;;;;;10.09;75.21;101565.50;5039964;28;20038;-74
2022/01/24 08:13:09;;;;;;;5.97;2.88;;;;;;;10.19;75.77;101564.94;5026679;28;20440;-75
2022/01/24 08:15:37;;;;;;;3.70;1.90;;;;;;;10.19;75.79;101566.69;5032711;28;20678;-76
2022/01/24 08:18:04;;;;;;;3.63;1.67;;;;;;;10.11;74.75;101574.31;5021382;28;20042;-75
2022/01/24 08:20:33;;;;;;;5.43;2.88;;;;;;;10.02;72.63;101589.88;5016124;28;20037;-75
2022/01/24 08:23:01;;;;;;;5.55;3.33;;;;;;;9.87;70.68;101579.75;5007137;28;20041;-75
2022/01/24 08:25:29;;;;;;;10.93;7.45;;;;;;;9.65;69.70;101581.69;5031222;28;20137;-76
2022/01/24 08:27:56;;;;;;;9.95;7.28;;;;;;;9.46;69.84;101574.88;5014976;28;20538;-75
2022/01/24 08:30:25;;;;;;;12.90;8.35;;;;;;;9.36;69.67;101576.31;5025458;28;20053;-75
2022/01/24 08:32:53;;;;;;;14.68;9.45;;;;;;;9.22;68.87;101572.31;5017556;28;20157;-75
2022/01/24 08:35:22;;;;;;;17.23;10.90;;;;;;;9.16;68.32;101564.22;5061875;28;20041;-75
2022/01/24 08:37:50;;;;;;;17.33;12.95;;;;;;;9.13;67.83;101566.72;5017459;28;20049;-75
2022/01/24 08:40:23;;;;;;;23.63;16.05;;;;;;;9.01;67.25;101584.75;5020321;28;20049;-74
2022/01/24 08:42:58;;;;;;;24.13;18.30;;;;;;;8.82;67.81;101582.31;5015601;28;20053;-74
2022/01/24 08:45:45;;;;;;;19.65;15.07;;;;;;;8.62;67.21;101571.06;5030145;28;20489;-76
2022/01/24 08:48:14;;;;;;;20.90;15.23;;;;;;;8.46;67.05;101572.25;5026340;28;20068;-74
2022/01/24 08:50:41;;;;;;;20.20;15.50;;;;;;;8.44;66.77;101570.41;5015211;28;20452;-75
2022/01/24 08:53:10;;;;;;;30.08;22.35;;;;;;;8.44;67.03;101560.78;5027345;28;20529;-75
2022/01/24 08:55:38;;;;;;;28.75;20.33;;;;;;;8.49;67.57;101563.56;5030366;28;20120;-76
2022/01/24 08:58:11;;;;;;;20.85;15.10;;;;;;;8.49;67.45;101546.03;5028292;28;20049;-75
2022/01/24 09:00:40;;;;;;;14.50;9.70;;;;;;;8.47;67.71;101542.44;5056994;28;20045;-75
2022/01/24 09:03:08;;;;;;;8.70;4.93;;;;;;;8.37;68.17;101546.50;5037028;28;20206;-75
2022/01/24 09:05:36;;;;;;;5.70;3.28;;;;;;;8.33;68.25;101541.97;5029526;28;20049;-75
2022/01/24 09:08:06;;;;;;;13.55;9.95;;;;;;;8.28;68.01;101547.84;5039844;28;20408;-76
2022/01/24 09:10:35;;;;;;;35.03;27.58;;;;;;;8.20;68.00;101550.22;5033024;28;20057;-75
2022/01/24 09:13:03;;;;;;;34.83;29.25;;;;;;;8.19;68.28;101547.50;5026397;28;20550;-75
2022/01/24 09:15:30;;;;;;;47.92;38.60;;;;;;;8.15;68.93;101556.09;5013221;28;20041;-76
2022/01/24 09:18:04;;;;;;;58.25;43.38;;;;;;;8.15;68.74;101557.00;5007371;28;20042;-74
2022/01/24 09:20:34;;;;;;;67.95;45.97;;;;;;;8.14;68.47;101557.84;4999083;28;20129;-75
2022/01/24 09:23:03;;;;;;;57.03;32.65;;;;;;;8.10;68.92;101557.66;5018251;28;20401;-74
2022/01/24 09:25:31;;;;;;;28.98;17.80;;;;;;;8.14;69.27;101554.34;5048873;28;20064;-76
2022/01/24 09:27:59;;;;;;;24.70;10.55;;;;;;;8.07;69.47;101549.69;5024648;28;20056;-75
2022/01/24 09:30:28;;;;;;;10.75;5.35;;;;;;;8.12;69.37;101551.66;5011115;28;20053;-75
2022/01/24 09:32:56;;;;;;;8.20;4.78;;;;;;;8.17;69.47;101541.28;5048449;28;20060;-75
2022/01/24 09:35:27;;;;;;;6.15;3.42;;;;;;;8.25;69.40;101550.38;5024884;28;20196;-74
2022/01/24 09:37:55;;;;;;;5.88;3.75;;;;;;;8.24;69.48;101541.59;5044303;28;20126;-75
2022/01/24 09:40:23;;;;;;;5.22;2.75;;;;;;;8.23;69.51;101544.16;5020423;28;20069;-75
2022/01/24 09:42:52;;;;;;;3.67;2.25;;;;;;;8.15;69.48;101540.31;5020329;28;20117;-75
2022/01/24 09:45:21;;;;;;;4.35;2.55;;;;;;;8.06;69.37;101542.63;5007461;28;20053;-75
2022/01/24 09:47:49;;;;;;;5.15;2.85;;;;;;;7.98;69.80;101523.94;5019694;28;20095;-74
2022/01/24 09:50:18;;;;;;;7.97;4.18;;;;;;;7.95;70.20;101527.31;5014171;28;20045;-74
2022/01/24 09:52:49;;;;;;;7.50;5.10;;;;;;;7.87;70.55;101520.91;5041260;28;20551;-73
2022/01/24 09:55:21;;;;;;;10.07;6.45;;;;;;;7.89;70.75;101515.69;5025670;28;20168;-74
2022/01/24 09:57:51;;;;;;;8.18;6.15;;;;;;;7.87;70.95;101507.75;5037263;28;20041;-74
2022/01/24 10:00:22;;;;;;;9.10;7.30;;;;;;;7.89;71.29;101506.06;5008837;28;20042;-73
2022/01/24 10:02:51;;;;;;;10.85;7.43;;;;;;;7.88;71.69;101500.75;5015530;28;20046;-74
2022/01/24 10:05:23;;;;;;;10.25;8.10;;;;;;;7.95;71.89;101492.25;5008849;28;20124;-73
2022/01/24 10:07:55;;;;;;;16.33;14.63;;;;;;;7.93;72.43;101486.97;5022121;28;20060;-73
2022/01/24 10:10:38;;;;;;;17.40;15.68;;;;;;;7.94;72.67;101485.22;5050593;28;20045;-74
2022/01/24 10:19:10;;;;;;;11.70;10.30;;;;;;;8.06;73.38;101471.63;5031008;28;20087;-74
2022/01/24 10:21:39;;;;;;;9.25;7.60;;;;;;;8.07;73.96;101470.81;5027785;28;20066;-73
2022/01/24 10:24:09;;;;;;;7.75;5.47;;;;;;;8.04;74.04;101457.53;5017932;28;20048;-73
2022/01/24 10:26:37;;;;;;;6.93;4.05;;;;;;;8.00;74.03;101454.81;5039466;28;20132;-73
2022/01/24 10:29:12;;;;;;;5.43;3.03;;;;;;;8.00;74.26;101459.16;5034367;28;20053;-74
2022/01/24 10:31:48;;;;;;;9.55;4.10;;;;;;;7.98;74.34;101455.56;5038464;28;20041;-73
2022/01/24 10:34:35;;;;;;;7.82;6.95;;;;;;;7.98;74.66;101452.94;5042743;28;20383;-73
2022/01/24 10:37:04;;;;;;;10.25;7.15;;;;;;;7.99;74.45;101454.75;5016889;28;20496;-73
2022/01/24 10:39:55;;;;;;;15.73;14.05;;;;;;;7.99;74.53;101454.75;5014876;28;20582;-74
2022/01/24 10:45:13;;;;;;;18.13;14.73;;;;;;;7.94;75.05;101443.16;4999539;28;20033;-72
2022/01/24 10:47:45;;;;;;;11.55;6.28;;;;;;;7.95;75.25;101432.69;5028193;28;20620;-72
2022/01/24 10:50:20;;;;;;;11.10;7.55;;;;;;;7.92;75.31;101422.06;5016486;28;20124;-72
2022/01/24 10:52:48;;;;;;;10.20;4.90;;;;;;;8.00;75.35;101415.38;5015288;28;20610;-73
2022/01/24 10:55:19;;;;;;;7.85;3.50;;;;;;;8.09;75.72;101419.16;5022099;28;20050;-73
2022/01/24 10:57:49;;;;;;;7.70;3.95;;;;;;;8.10;75.57;101407.78;5040500;28;20056;-73
2022/01/24 11:00:20;;;;;;;10.38;8.15;;;;;;;8.08;75.92;101404.22;5017817;28;20041;-73
2022/01/24 11:02:51;;;;;;;8.68;4.85;;;;;;;8.08;75.94;101391.97;5009866;28;20483;-73
2022/01/24 11:05:22;;;;;;;10.82;6.75;;;;;;;8.11;75.77;101397.34;5014516;28;20112;-73
2022/01/24 11:07:51;;;;;;;23.45;17.27;;;;;;;8.12;75.75;101391.25;4994256;28;20042;-73
2022/01/24 11:10:22;;;;;;;32.33;19.45;;;;;;;8.12;76.02;101388.63;5008991;28;20044;-74
2022/01/24 11:12:50;;;;;;;16.30;12.73;;;;;;;8.05;75.76;101381.34;5007204;28;20034;-72
2022/01/24 11:15:18;;;;;;;5.28;2.80;;;;;;;8.06;76.03;101377.00;5030520;28;20034;-73
2022/01/24 11:17:46;;;;;;;1.95;1.30;;;;;;;8.06;75.54;101375.25;5026018;28;20042;-72
2022/01/24 11:20:18;;;;;;;4.10;1.67;;;;;;;8.02;74.76;101368.97;5017666;28;20041;-72
2022/01/24 11:22:49;;;;;;;3.67;1.73;;;;;;;7.92;74.09;101363.34;5025806;28;20128;-73
2022/01/24 11:25:17;;;;;;;3.95;2.25;;;;;;;7.89;73.91;101361.50;5015843;28;20045;-73
2022/01/24 11:27:49;;;;;;;7.13;4.40;;;;;;;7.91;73.81;101344.06;5019636;28;20046;-73
2022/01/24 11:30:22;;;;;;;14.25;10.65;;;;;;;7.98;74.01;101337.28;5029274;28;20516;-74
2022/01/24 11:32:54;;;;;;;26.33;22.83;;;;;;;8.04;74.39;101334.88;5039940;28;20045;-73
2022/01/24 11:35:38;;;;;;;23.75;19.77;;;;;;;7.93;74.91;101326.63;5012318;28;20045;-75
2022/01/24 11:38:26;;;;;;;16.85;11.68;;;;;;;7.72;75.72;101317.97;5031424;28;20511;-74
2022/01/24 11:40:59;;;;;;;11.65;8.27;;;;;;;7.66;76.14;101328.25;5016313;28;20061;-74
2022/01/24 11:43:44;;;;;;;7.65;4.78;;;;;;;7.65;76.49;101326.47;5031055;28;20069;-74
2022/01/24 11:46:35;;;;;;;7.15;4.43;;;;;;;7.68;76.51;101315.19;5003901;28;20410;-74
2022/01/24 11:49:05;;;;;;;13.30;11.10;;;;;;;7.69;76.53;101309.94;5024227;28;20088;-75
2022/01/24 11:51:34;;;;;;;17.13;10.82;;;;;;;7.77;76.54;101313.75;5018607;28;20468;-74
2022/01/24 11:54:02;;;;;;;41.75;32.20;;;;;;;7.75;76.18;101307.53;5010400;28;20121;-79
2022/01/24 11:56:32;;;;;;;34.47;27.13;;;;;;;7.73;76.01;101306.63;5056691;28;20133;-74
2022/01/24 11:59:22;;;;;;;24.00;19.20;;;;;;;7.74;76.20;101310.13;5011620;28;20464;-74
2022/01/24 12:02:07;;;;;;;16.38;12.52;;;;;;;7.67;76.10;101297.63;5004855;28;20159;-74
2022/01/24 12:04:52;;;;;;;18.58;14.25;;;;;;;7.59;76.40;101299.97;5025059;28;20038;-74
2022/01/24 12:07:22;;;;;;;29.33;26.25;;;;;;;7.51;76.68;101304.03;5021583;28;20069;-74
2022/01/24 12:09:51;;;;;;;31.33;27.15;;;;;;;7.46;77.01;101295.09;5026888;28;20034;-73
2022/01/24 12:12:47;;;;;;;27.85;20.73;;;;;;;7.47;77.37;101299.53;5029299;28;20127;-73
2022/01/24 12:15:48;;;;;;;27.02;21.65;;;;;;;7.45;77.33;101288.06;5030512;28;20061;-73
2022/01/24 12:18:24;;;;;;;28.05;23.90;;;;;;;7.40;77.72;101287.00;4998603;28;20040;-73
2022/01/24 12:20:53;;;;;;;25.90;22.08;;;;;;;7.40;77.91;101287.91;5028885;28;20492;-73
2022/01/24 12:23:36;;;;;;;17.88;13.65;;;;;;;7.43;77.83;101284.47;5039299;28;20049;-74
2022/01/24 12:26:07;;;;;;;16.00;10.57;;;;;;;7.47;78.07;101295.16;5028652;28;20120;-72
2022/01/24 12:28:50;;;;;;;17.58;14.20;;;;;;;7.51;78.24;101281.28;5020685;28;20053;-73
2022/01/24 12:31:21;;;;;;;22.77;18.95;;;;;;;7.53;78.26;101284.00;5030242;28;20046;-72
2022/01/24 12:34:04;;;;;;;16.42;11.88;;;;;;;7.58;78.45;101275.44;5043653;28;20056;-72
2022/01/24 12:36:52;;;;;;;11.52;8.25;;;;;;;7.58;78.64;101285.03;5019977;28;20037;-73
2022/01/24 12:39:24;;;;;;;11.40;7.45;;;;;;;7.57;78.76;101278.88;5040118;28;20160;-73
2022/01/24 12:41:57;;;;;;;15.38;9.15;;;;;;;7.51;79.09;101275.16;5040966;28;20489;-73
2022/01/24 12:47:14;;;;;;;22.40;16.15;;;;;;;7.64;79.17;101266.88;5039211;28;20041;-73
2022/01/24 12:49:46;;;;;;;15.15;10.13;;;;;;;7.72;79.25;101264.50;5032821;28;20041;-73
2022/01/24 12:52:16;;;;;;;14.27;9.10;;;;;;;7.72;79.33;101265.41;5018082;28;20045;-73
2022/01/24 12:54:46;;;;;;;10.85;7.13;;;;;;;7.74;79.50;101265.47;5038992;28;20137;-73
2022/01/24 12:57:15;;;;;;;12.63;9.57;;;;;;;7.74;79.48;101274.25;5026859;28;20397;-73
2022/01/24 12:59:54;;;;;;;16.70;11.88;;;;;;;7.73;79.86;101267.19;5041980;28;20125;-73
2022/01/24 13:02:26;;;;;;;14.55;10.45;;;;;;;7.75;79.96;101259.34;5015804;28;20073;-74
2022/01/24 13:05:01;;;;;;;9.43;6.75;;;;;;;7.78;80.14;101268.25;5010796;28;20053;-73
2022/01/24 13:07:31;;;;;;;19.52;17.42;;;;;;;7.74;79.91;101273.34;5009890;28;20450;-74